createdAt,value
2022-08-25T00:01:32.216Z,72.92
2022-08-25T00:04:02.123Z,73.32
2022-08-25T00:06:30.516Z,73.50
2022-08-25T00:08:59.709Z,73.53
2022-08-25T00:11:30.053Z,73.51
2022-08-25T00:14:02.175Z,73.57
2022-08-25T00:16:31.461Z,73.50
2022-08-25T00:19:03.386Z,73.42
2022-08-25T00:21:31.792Z,73.46
2022-08-25T00:23:59.745Z,73.92
2022-08-25T00:26:27.613Z,73.48
2022-08-25T00:28:57.463Z,73.56
2022-08-25T00:31:37.829Z,73.10
2022-08-25T00:34:09.627Z,73.46
2022-08-25T00:36:36.482Z,73.44
2022-08-25T00:39:05.307Z,73.32
2022-08-25T00:41:32.334Z,73.20
2022-08-25T00:44:01.940Z,72.97
2022-08-25T00:46:40.646Z,73.16
2022-08-25T00:49:24.599Z,73.12
2022-08-25T00:52:18.309Z,72.92
2022-08-25T00:54:54.228Z,72.82
2022-08-25T00:57:34.402Z,72.55
2022-08-25T01:00:06.702Z,72.40
2022-08-25T01:02:33.381Z,72.50
2022-08-25T01:05:00.013Z,72.65
2022-08-25T01:07:26.691Z,72.28
2022-08-25T01:09:53.871Z,72.54
2022-08-25T01:12:21.601Z,72.34
2022-08-25T01:14:49.929Z,72.61
2022-08-25T01:17:17.031Z,72.84
2022-08-25T01:19:44.099Z,72.60
2022-08-25T01:22:12.056Z,72.73
2022-08-25T01:24:47.189Z,72.72
2022-08-25T01:27:14.007Z,72.69
2022-08-25T01:29:41.384Z,73.00
2022-08-25T01:32:12.136Z,73.03
2022-08-25T01:34:41.473Z,72.67
2022-08-25T01:37:09.675Z,72.71
2022-08-25T01:39:41.693Z,72.79
2022-08-25T01:42:11.481Z,72.79
2022-08-25T01:44:41.723Z,72.79
2022-08-25T01:47:08.493Z,73.00
2022-08-25T01:49:35.312Z,73.04
2022-08-25T01:52:06.302Z,72.90
2022-08-25T01:54:32.945Z,72.84
2022-08-25T01:56:59.590Z,73.01
2022-08-25T01:59:27.191Z,73.09
2022-08-25T02:02:00.207Z,73.27
2022-08-25T02:04:32.237Z,73.56
2022-08-25T02:07:05.372Z,73.74
2022-08-25T02:09:33.035Z,74.08
2022-08-25T02:12:00.052Z,74.20
2022-08-25T02:14:28.532Z,74.22
2022-08-25T02:16:55.661Z,74.40
2022-08-25T02:19:24.425Z,75.09
2022-08-25T02:21:51.938Z,74.91
2022-08-25T02:24:19.032Z,75.07
2022-08-25T02:26:45.751Z,75.33
2022-08-25T02:29:12.519Z,75.41
2022-08-25T02:31:39.582Z,76.03
2022-08-25T02:34:07.242Z,75.88
2022-08-25T02:36:34.550Z,76.09
2022-08-25T02:39:02.933Z,76.04
2022-08-25T02:41:31.815Z,76.27
2022-08-25T02:44:03.037Z,76.25
2022-08-25T02:46:29.791Z,76.26
2022-08-25T02:48:57.336Z,76.14
2022-08-25T02:51:25.406Z,76.12
2022-08-25T02:53:52.351Z,76.19
2022-08-25T02:56:19.969Z,76.45
2022-08-25T02:58:47.479Z,76.03
2022-08-25T03:01:15.722Z,76.15
2022-08-25T03:03:45.815Z,76.07
2022-08-25T03:06:14.789Z,76.23
2022-08-25T03:08:43.043Z,76.03
2022-08-25T03:11:10.092Z,75.99
2022-08-25T03:13:37.633Z,75.76
2022-08-25T03:16:11.066Z,75.39
2022-08-25T03:18:40.818Z,75.07
2022-08-25T03:21:08.223Z,74.89
2022-08-25T03:23:35.204Z,74.50
2022-08-25T03:26:20.574Z,74.22
2022-08-25T03:28:47.289Z,74.23
2022-08-25T03:31:13.974Z,73.87
2022-08-25T03:33:40.585Z,73.76
2022-08-25T03:36:08.559Z,73.47
2022-08-25T03:38:38.169Z,73.16
2022-08-25T03:41:16.788Z,72.83
2022-08-25T03:43:44.146Z,72.78
2022-08-25T03:46:19.295Z,72.56
2022-08-25T03:48:46.299Z,72.50
2022-08-25T03:51:13.922Z,72.42
2022-08-25T03:53:40.529Z,72.18
2022-08-25T03:56:07.187Z,71.87
2022-08-25T03:58:33.929Z,71.49
2022-08-25T04:01:00.752Z,71.82
2022-08-25T04:03:27.501Z,71.81
2022-08-25T04:05:54.222Z,71.50
2022-08-25T04:08:23.198Z,71.51
2022-08-25T04:10:49.878Z,71.46
2022-08-25T04:13:16.585Z,71.54
2022-08-25T04:15:43.932Z,71.55
2022-08-25T04:18:11.591Z,71.46
2022-08-25T04:20:38.343Z,71.40
2022-08-25T04:23:05.105Z,71.24
2022-08-25T04:25:31.779Z,72.25
2022-08-25T04:27:58.557Z,71.88
2022-08-25T04:30:25.239Z,72.13
2022-08-25T04:32:51.825Z,71.97
2022-08-25T04:35:18.468Z,71.94
2022-08-25T04:37:48.052Z,72.04
2022-08-25T04:40:14.752Z,72.08
2022-08-25T04:42:41.418Z,72.09
2022-08-25T04:45:08.374Z,72.10
2022-08-25T04:47:39.024Z,72.01
2022-08-25T04:50:07.297Z,71.91
2022-08-25T04:52:33.966Z,72.09
2022-08-25T04:55:00.678Z,72.10
2022-08-25T04:57:27.891Z,71.84
2022-08-25T04:59:55.578Z,71.69
2022-08-25T05:02:22.838Z,71.77
2022-08-25T05:04:49.542Z,72.17
2022-08-25T05:07:16.208Z,72.21
2022-08-25T05:09:42.894Z,72.49
2022-08-25T05:12:09.634Z,72.44
2022-08-25T05:14:38.591Z,72.65
2022-08-25T05:17:06.885Z,72.78
2022-08-25T05:19:33.698Z,73.30
2022-08-25T05:22:01.150Z,73.36
2022-08-25T05:24:28.122Z,73.84
2022-08-25T05:26:55.240Z,74.38
2022-08-25T05:29:22.145Z,74.44
2022-08-25T05:31:50.761Z,74.58
2022-08-25T05:34:19.384Z,74.99
2022-08-25T05:36:46.474Z,75.11
2022-08-25T05:39:13.236Z,75.36
2022-08-25T05:41:40.680Z,75.69
2022-08-25T05:44:07.808Z,75.87
2022-08-25T05:46:34.472Z,75.95
2022-08-25T05:49:02.014Z,76.00
2022-08-25T05:51:28.942Z,75.89
2022-08-25T05:53:55.688Z,75.65
2022-08-25T05:56:22.269Z,75.89
2022-08-25T05:58:49.091Z,75.66
2022-08-25T06:01:40.284Z,75.47
2022-08-25T06:04:10.574Z,75.55
2022-08-25T06:06:38.639Z,75.25
2022-08-25T06:09:06.866Z,74.98
2022-08-25T06:11:33.457Z,74.48
2022-08-25T06:14:00.147Z,74.98
2022-08-25T06:16:26.875Z,75.07
2022-08-25T06:18:55.380Z,75.09
2022-08-25T06:21:22.216Z,75.04
2022-08-25T06:23:49.280Z,74.68
2022-08-25T06:26:21.186Z,75.18
2022-08-25T06:28:52.217Z,75.08
2022-08-25T06:31:20.467Z,75.18
2022-08-25T06:33:47.194Z,75.35
2022-08-25T06:36:15.244Z,75.12
2022-08-25T06:38:41.902Z,74.85
2022-08-25T06:41:12.635Z,74.54
2022-08-25T06:43:45.040Z,74.62
2022-08-25T06:46:17.657Z,74.71
2022-08-25T06:48:44.387Z,74.25
2022-08-25T06:51:15.793Z,74.10
2022-08-25T06:53:43.723Z,73.88
2022-08-25T06:56:11.130Z,73.29
2022-08-25T06:58:38.932Z,73.21
2022-08-25T07:01:26.231Z,72.71
2022-08-25T07:03:58.137Z,72.59
2022-08-25T07:06:29.081Z,72.79
2022-08-25T07:08:55.715Z,72.55
2022-08-25T07:11:22.416Z,72.12
2022-08-25T07:13:50.434Z,71.95
2022-08-25T07:16:19.217Z,71.80
2022-08-25T07:18:47.449Z,71.94
2022-08-25T07:21:15.095Z,71.50
2022-08-25T07:23:42.040Z,71.17
2022-08-25T07:29:12.428Z,70.18
2022-08-25T07:31:39.332Z,70.25
2022-08-25T07:34:25.847Z,69.69
2022-08-25T07:36:53.809Z,69.24
2022-08-25T07:39:21.988Z,69.49
2022-08-25T07:41:52.197Z,69.62
2022-08-25T07:44:20.040Z,69.19
2022-08-25T07:46:46.675Z,69.08
2022-08-25T07:49:16.777Z,67.51
2022-08-25T07:52:04.061Z,66.82
2022-08-25T07:54:34.492Z,66.35
2022-08-25T07:57:05.604Z,65.99
2022-08-25T07:59:39.350Z,65.00
2022-08-25T08:02:16.015Z,65.14
2022-08-25T08:04:49.627Z,64.67
2022-08-25T08:07:18.860Z,63.38
2022-08-25T08:09:46.128Z,62.87
2022-08-25T08:12:12.865Z,62.40
2022-08-25T08:14:44.893Z,61.98
2022-08-25T08:17:12.993Z,61.88
2022-08-25T08:19:44.904Z,61.53
2022-08-25T08:22:15.400Z,60.93
2022-08-25T08:24:54.500Z,60.88
2022-08-25T08:27:22.677Z,60.19
2022-08-25T08:29:49.588Z,59.92
2022-08-25T08:32:17.921Z,58.98
2022-08-25T08:34:46.933Z,58.88
2022-08-25T08:37:21.984Z,58.76
2022-08-25T08:39:51.202Z,58.41
2022-08-25T08:42:56.059Z,57.50
2022-08-25T08:45:35.660Z,56.76
2022-08-25T08:48:34.770Z,56.90
2022-08-25T08:51:01.434Z,56.97
2022-08-25T08:53:57.370Z,55.54
2022-08-25T08:56:45.337Z,55.21
2022-08-25T08:59:22.579Z,55.17
2022-08-25T09:02:02.606Z,55.64
2022-08-25T09:04:35.025Z,55.59
2022-08-25T09:07:07.647Z,55.42
2022-08-25T09:09:40.045Z,54.98
2022-08-25T09:12:19.695Z,54.99
2022-08-25T09:15:12.807Z,54.41
2022-08-25T09:18:00.993Z,54.51
2022-08-25T09:20:40.000Z,54.51
2022-08-25T09:23:42.259Z,53.83
2022-08-25T09:26:30.808Z,53.36
2022-08-25T09:29:17.046Z,53.09
2022-08-25T09:31:44.922Z,53.62
2022-08-25T09:34:16.629Z,54.09
2022-08-25T09:36:43.298Z,54.34
2022-08-25T09:39:10.058Z,54.68
2022-08-25T09:41:47.598Z,54.63
2022-08-25T09:44:24.046Z,54.07
2022-08-25T09:47:03.628Z,53.05
2022-08-25T09:49:37.797Z,52.59
2022-08-25T09:52:25.339Z,51.81
2022-08-25T09:54:54.049Z,51.25
2022-08-25T09:57:33.970Z,50.50
2022-08-25T10:00:22.179Z,50.44
2022-08-25T10:03:06.779Z,50.74
2022-08-25T10:05:41.560Z,50.71
2022-08-25T10:08:16.353Z,50.88
2022-08-25T10:10:54.950Z,51.12
2022-08-25T10:13:32.169Z,50.39
2022-08-25T10:16:36.141Z,50.66
2022-08-25T10:19:26.294Z,50.66
2022-08-25T10:22:11.036Z,50.11
2022-08-25T10:24:41.030Z,50.62
2022-08-25T10:27:31.648Z,50.56
2022-08-25T10:30:07.611Z,50.70
2022-08-25T10:32:55.978Z,50.97
2022-08-25T10:35:31.327Z,50.43
2022-08-25T10:38:07.159Z,50.15
2022-08-25T10:40:57.396Z,50.10
2022-08-25T10:43:41.450Z,50.92
2022-08-25T10:46:31.557Z,50.80
2022-08-25T10:49:12.667Z,51.41
2022-08-25T10:51:58.339Z,51.94
2022-08-25T10:54:53.395Z,51.79
2022-08-25T10:57:40.259Z,52.42
2022-08-25T11:00:33.333Z,52.43
2022-08-25T11:03:12.530Z,52.35
2022-08-25T11:05:59.096Z,52.51
2022-08-25T11:08:40.100Z,52.76
2022-08-25T11:11:24.841Z,52.98
2022-08-25T11:14:05.712Z,52.62
2022-08-25T11:16:48.508Z,52.55
2022-08-25T11:19:38.897Z,52.51
2022-08-25T11:22:23.850Z,52.59
2022-08-25T11:25:07.574Z,52.22
2022-08-25T11:27:44.056Z,52.94
2022-08-25T11:30:15.173Z,53.04
2022-08-25T11:32:47.532Z,53.23
2022-08-25T11:35:18.204Z,53.76
2022-08-25T11:38:16.201Z,53.07
2022-08-25T11:40:45.649Z,52.90
2022-08-25T11:43:40.559Z,52.89
2022-08-25T11:46:34.803Z,52.72
2022-08-25T11:49:37.464Z,53.57
2022-08-25T11:52:30.800Z,53.33
2022-08-25T11:55:22.769Z,53.49
2022-08-25T11:57:53.632Z,54.10
2022-08-25T12:00:42.218Z,53.72
2022-08-25T12:03:36.569Z,53.59
2022-08-25T12:06:36.728Z,52.95
2022-08-25T12:09:03.687Z,52.29
2022-08-25T12:11:42.247Z,51.67
2022-08-25T12:14:28.290Z,51.64
2022-08-25T12:16:55.161Z,51.62
2022-08-25T12:19:34.188Z,52.31
2022-08-25T12:22:04.183Z,51.83
2022-08-25T12:24:48.081Z,52.41
2022-08-25T12:27:24.702Z,52.17
2022-08-25T12:30:05.565Z,52.16
2022-08-25T12:32:50.564Z,52.64
2022-08-25T12:35:54.273Z,53.08
2022-08-25T12:38:45.449Z,52.97
2022-08-25T12:41:21.991Z,52.73
2022-08-25T12:43:54.344Z,52.82
2022-08-25T12:46:25.703Z,52.93
2022-08-25T12:49:11.515Z,53.61
2022-08-25T12:51:58.993Z,53.56
2022-08-25T12:54:37.949Z,53.17
2022-08-25T12:57:25.070Z,52.71
2022-08-25T12:59:58.758Z,52.61
2022-08-25T13:02:52.080Z,52.63
2022-08-25T13:05:40.107Z,52.96
2022-08-25T13:08:06.901Z,52.81
2022-08-25T13:10:54.196Z,52.75
2022-08-25T13:13:39.597Z,51.37
2022-08-25T13:16:15.572Z,51.44
2022-08-25T13:18:42.386Z,51.08
2022-08-25T13:21:18.537Z,51.61
2022-08-25T13:23:54.298Z,51.42
2022-08-25T13:26:48.385Z,51.79
2022-08-25T13:29:25.558Z,52.57
2022-08-25T13:31:54.576Z,52.87
2022-08-25T13:34:34.360Z,53.31
2022-08-25T13:37:30.310Z,52.86
2022-08-25T13:40:17.952Z,52.93
2022-08-25T13:42:55.844Z,53.34
2022-08-25T13:45:31.853Z,54.08
2022-08-25T13:47:58.848Z,54.88
2022-08-25T13:50:26.489Z,54.91
2022-08-25T13:53:11.619Z,54.62
2022-08-25T13:55:52.277Z,54.45
2022-08-25T13:58:24.841Z,53.79
2022-08-25T14:01:49.065Z,53.11
2022-08-25T14:04:39.638Z,52.54
2022-08-25T14:07:25.321Z,52.79
2022-08-25T14:09:55.181Z,52.70
2022-08-25T14:12:33.626Z,53.14
2022-08-25T14:15:09.136Z,53.81
2022-08-25T14:17:40.249Z,54.75
2022-08-25T14:20:19.225Z,54.13
2022-08-25T14:22:46.144Z,54.48
2022-08-25T14:25:13.319Z,54.20
2022-08-25T14:28:06.684Z,54.79
2022-08-25T14:30:34.347Z,54.79
2022-08-25T14:33:03.207Z,54.37
2022-08-25T14:35:30.293Z,54.25
2022-08-25T14:37:58.921Z,54.04
2022-08-25T14:40:25.746Z,54.87
2022-08-25T14:42:55.187Z,55.04
2022-08-25T14:45:21.855Z,55.15
2022-08-25T14:47:50.164Z,55.39
2022-08-25T14:50:20.088Z,55.83
2022-08-25T14:52:48.323Z,55.86
2022-08-25T14:55:31.196Z,56.04
2022-08-25T14:57:58.957Z,56.21
2022-08-25T15:00:30.656Z,56.28
2022-08-25T15:03:00.983Z,57.08
2022-08-25T15:05:30.129Z,57.26
2022-08-25T15:08:16.274Z,57.51
2022-08-25T15:10:43.406Z,57.66
2022-08-25T15:13:10.722Z,57.74
2022-08-25T15:15:52.362Z,58.11
2022-08-25T15:18:21.100Z,57.82
2022-08-25T15:20:50.129Z,57.97
2022-08-25T15:23:20.565Z,58.43
2022-08-25T15:25:49.011Z,58.52
2022-08-25T15:28:22.475Z,58.84
2022-08-25T15:30:50.292Z,59.41
2022-08-25T15:33:17.563Z,59.66
2022-08-25T15:35:45.106Z,59.62
2022-08-25T15:38:12.584Z,59.67
2022-08-25T15:40:39.911Z,60.13
2022-08-25T15:43:06.918Z,60.43
2022-08-25T15:45:35.951Z,60.56
2022-08-25T15:48:03.634Z,61.21
2022-08-25T15:50:30.356Z,61.27
2022-08-25T15:52:57.879Z,61.84
2022-08-25T15:55:24.800Z,62.57
2022-08-25T15:57:51.406Z,62.55
2022-08-25T16:00:19.365Z,62.60
2022-08-25T16:02:48.215Z,62.90
2022-08-25T16:05:16.518Z,62.84
2022-08-25T16:07:46.125Z,63.31
2022-08-25T16:10:18.742Z,63.45
2022-08-25T16:12:45.836Z,62.88
2022-08-25T16:15:12.663Z,63.24
2022-08-25T16:17:40.691Z,63.48
2022-08-25T16:20:13.674Z,63.01
2022-08-25T16:22:41.370Z,63.16
2022-08-25T16:25:08.699Z,63.29
2022-08-25T16:27:38.666Z,63.74
2022-08-25T16:30:07.789Z,63.66
2022-08-25T16:32:34.951Z,63.47
2022-08-25T16:35:03.375Z,63.40
2022-08-25T16:37:30.473Z,62.94
2022-08-25T16:39:57.559Z,62.23
2022-08-25T16:42:24.380Z,62.68
2022-08-25T16:44:53.916Z,62.38
2022-08-25T16:49:54.020Z,62.38
2022-08-25T16:52:40.678Z,62.16
2022-08-25T16:55:13.688Z,61.82
2022-08-25T16:57:43.879Z,62.51
2022-08-25T17:00:13.772Z,62.65
2022-08-25T17:02:41.856Z,62.66
2022-08-25T17:05:11.318Z,62.91
2022-08-25T17:07:39.504Z,63.05
2022-08-25T17:10:07.240Z,63.57
2022-08-25T17:12:41.037Z,63.23
2022-08-25T17:15:07.898Z,63.60
2022-08-25T17:17:39.062Z,63.93
2022-08-25T17:20:06.482Z,63.88
2022-08-25T17:22:33.264Z,63.40
2022-08-25T17:25:00.842Z,64.04
2022-08-25T17:27:28.290Z,63.63
2022-08-25T17:29:55.913Z,64.10
2022-08-25T17:32:28.950Z,64.04
2022-08-25T17:34:57.737Z,63.92
2022-08-25T17:37:24.613Z,64.00
2022-08-25T17:40:02.488Z,63.89
2022-08-25T17:42:30.572Z,63.96
2022-08-25T17:44:58.045Z,64.03
2022-08-25T17:47:24.703Z,64.71
2022-08-25T17:49:51.296Z,64.48
2022-08-25T17:52:17.973Z,64.57
2022-08-25T17:54:48.612Z,65.37
2022-08-25T17:57:16.084Z,65.25
2022-08-25T17:59:42.889Z,65.62
2022-08-25T18:02:09.796Z,65.74
2022-08-25T18:04:38.047Z,65.73
2022-08-25T18:07:05.170Z,65.87
2022-08-25T18:09:31.805Z,66.11
2022-08-25T18:11:58.424Z,65.99
2022-08-25T18:14:25.765Z,66.03
2022-08-25T18:16:56.077Z,66.14
2022-08-25T18:19:25.729Z,66.76
2022-08-25T18:21:52.659Z,66.56
2022-08-25T18:24:19.402Z,66.30
2022-08-25T18:26:46.835Z,66.10
2022-08-25T18:29:13.512Z,66.18
2022-08-25T18:31:42.456Z,66.04
2022-08-25T18:34:11.602Z,66.17
2022-08-25T18:36:40.338Z,66.44
2022-08-25T18:39:26.214Z,66.72
2022-08-25T18:41:54.226Z,67.11
2022-08-25T18:44:21.563Z,66.99
2022-08-25T18:46:48.505Z,67.29
2022-08-25T18:49:17.124Z,67.21
2022-08-25T18:51:48.257Z,67.32
2022-08-25T18:54:23.353Z,68.04
2022-08-25T18:56:52.339Z,68.17
2022-08-25T18:59:19.753Z,68.26
2022-08-25T19:01:50.452Z,68.18
2022-08-25T19:04:17.248Z,68.10
2022-08-25T19:06:44.090Z,68.34
2022-08-25T19:09:11.315Z,68.17
2022-08-25T19:11:38.319Z,68.22
2022-08-25T19:14:12.159Z,68.52
2022-08-25T19:16:42.430Z,68.59
2022-08-25T19:19:13.212Z,68.75
2022-08-25T19:21:41.218Z,68.74
2022-08-25T19:24:09.178Z,68.99
2022-08-25T19:26:36.491Z,68.90
2022-08-25T19:29:08.974Z,68.93
2022-08-25T19:31:37.184Z,68.70
2022-08-25T19:34:07.496Z,69.01
2022-08-25T19:36:34.237Z,69.67
2022-08-25T19:39:01.517Z,69.62
2022-08-25T19:41:32.882Z,69.49
2022-08-25T19:44:02.807Z,69.47
2022-08-25T19:46:35.802Z,69.95
2022-08-25T19:49:12.047Z,69.21
2022-08-25T19:51:44.359Z,69.15
2022-08-25T19:54:14.066Z,68.96
2022-08-25T19:56:43.941Z,69.02
2022-08-25T19:59:40.630Z,69.21
2022-08-25T20:02:16.206Z,69.35
2022-08-25T20:04:49.166Z,69.53
2022-08-25T20:07:21.167Z,69.77
2022-08-25T20:09:48.595Z,69.45
2022-08-25T20:12:20.205Z,69.78
2022-08-25T20:14:48.857Z,70.16
2022-08-25T20:17:24.805Z,69.87
2022-08-25T20:20:00.309Z,70.59
2022-08-25T20:22:31.888Z,70.57
2022-08-25T20:25:13.075Z,70.86
2022-08-25T20:27:43.808Z,70.53
2022-08-25T20:30:16.539Z,70.10
2022-08-25T20:32:44.141Z,70.04
2022-08-25T20:35:15.287Z,70.24
2022-08-25T20:37:44.425Z,70.70
2022-08-25T20:40:14.455Z,71.05
2022-08-25T20:42:43.426Z,70.85
2022-08-25T20:45:12.791Z,71.10
2022-08-25T20:47:39.700Z,71.18
2022-08-25T20:50:09.011Z,70.91
2022-08-25T20:52:37.366Z,71.29
2022-08-25T20:55:09.894Z,71.26
2022-08-25T20:57:36.991Z,71.47
2022-08-25T21:00:05.499Z,71.49
2022-08-25T21:02:32.162Z,71.50
2022-08-25T21:05:05.239Z,71.65
2022-08-25T21:07:32.848Z,71.95
2022-08-25T21:10:10.707Z,72.05
2022-08-25T21:12:41.909Z,71.72
2022-08-25T21:15:10.450Z,71.87
2022-08-25T21:17:37.665Z,71.67
2022-08-25T21:20:07.911Z,72.03
2022-08-25T21:22:35.581Z,72.00
2022-08-25T21:25:04.516Z,71.77
2022-08-25T21:27:31.303Z,72.16
2022-08-25T21:29:57.976Z,72.12
2022-08-25T21:32:24.701Z,72.24
2022-08-25T21:34:55.549Z,72.32
2022-08-25T21:37:23.717Z,72.29
2022-08-25T21:39:51.104Z,72.21
2022-08-25T21:42:22.518Z,72.09
2022-08-25T21:44:50.433Z,72.67
2022-08-25T21:47:21.218Z,72.71
2022-08-25T21:49:49.034Z,72.96
2022-08-25T21:52:15.908Z,73.07
2022-08-25T21:54:43.871Z,73.40
2022-08-25T21:57:10.636Z,73.71
2022-08-25T21:59:40.493Z,73.71
2022-08-25T22:02:10.566Z,73.61
2022-08-25T22:04:41.384Z,73.92
2022-08-25T22:07:09.989Z,74.10
2022-08-25T22:09:39.103Z,73.98
2022-08-25T22:12:12.028Z,74.38
2022-08-25T22:14:39.422Z,74.33
2022-08-25T22:17:13.920Z,74.29
2022-08-25T22:19:45.436Z,74.46
2022-08-25T22:22:12.430Z,74.37
2022-08-25T22:24:39.056Z,74.38
2022-08-25T22:27:15.461Z,74.34
2022-08-25T22:29:44.689Z,74.13
2022-08-25T22:32:13.505Z,74.06
2022-08-25T22:34:40.645Z,73.83
2022-08-25T22:37:10.132Z,73.89
2022-08-25T22:39:40.269Z,73.84
2022-08-25T22:42:09.767Z,73.64
2022-08-25T22:44:40.565Z,73.87
2022-08-25T22:47:08.538Z,73.83
2022-08-25T22:49:35.730Z,73.73
2022-08-25T22:52:02.857Z,73.78
2022-08-25T22:54:29.896Z,73.89
2022-08-25T22:56:56.587Z,73.55
2022-08-25T22:59:23.251Z,73.52
2022-08-25T23:01:52.606Z,73.52
2022-08-25T23:04:21.374Z,73.80
2022-08-25T23:06:49.384Z,73.67
2022-08-25T23:09:16.545Z,73.81
2022-08-25T23:11:43.185Z,73.95
2022-08-25T23:14:13.127Z,73.70
2022-08-25T23:16:41.857Z,73.66
2022-08-25T23:19:10.938Z,73.59
2022-08-25T23:21:58.897Z,73.29
2022-08-25T23:24:29.363Z,73.24
2022-08-25T23:27:02.038Z,73.36
2022-08-25T23:29:29.216Z,73.30
2022-08-25T23:31:57.567Z,73.18
2022-08-25T23:34:25.014Z,73.22
2022-08-25T23:36:51.878Z,73.31
2022-08-25T23:39:18.647Z,73.43
2022-08-25T23:41:49.414Z,73.44
2022-08-25T23:44:17.224Z,73.03
2022-08-25T23:46:45.279Z,72.87
2022-08-25T23:49:14.687Z,72.79
2022-08-25T23:51:47.274Z,72.48
2022-08-25T23:54:14.639Z,72.21
2022-08-25T23:56:52.047Z,72.34
2022-08-25T23:59:24.306Z,71.72
